Time;durP1;ratioP1;P1;durP2;ratioP2;P2;SDS_P1;SDS_P2;PMS_P1;PMS_P2;Temp;Humidity;BMP_temperature;BMP_pressure;BME280_temperature;BME280_humidity;BME280_pressure;Samples;Min_cycle;Max_cycle;Signal;HPM_P1;HPM_P2
2022/08/06 00:00:11;;;;;;;943.65;880.63;;;;;;;21.76;43.90;101623.75;697228;28;46307;-64
2022/08/06 00:00:35;;;;;;;962.10;898.42;;;;;;;21.75;44.17;101632.25;693610;28;136172;-64
2022/08/06 00:00:57;;;;;;;950.53;887.33;;;;;;;21.73;44.22;101629.72;697469;28;22209;-65
2022/08/06 00:01:18;;;;;;;962.10;898.53;;;;;;;21.69;44.41;101624.91;696728;28;45230;-64
2022/08/06 00:02:05;;;;;;;971.10;907.15;;;;;;;21.62;44.56;101615.94;696336;28;135983;-65
2022/08/06 00:02:29;;;;;;;935.08;872.35;;;;;;;21.68;44.38;101631.50;698915;28;46310;-64
2022/08/06 00:02:50;;;;;;;963.63;899.92;;;;;;;21.68;44.50;101626.84;699025;28;92423;-65
2022/08/06 00:03:13;;;;;;;946.07;882.97;;;;;;;21.68;44.47;101624.09;699707;28;46407;-64
2022/08/06 00:03:34;;;;;;;950.08;886.90;;;;;;;21.67;44.58;101624.31;698770;28;69293;-64
2022/08/06 00:03:55;;;;;;;951.38;888.17;;;;;;;21.67;44.43;101622.38;700419;28;22466;-65
2022/08/06 00:04:17;;;;;;;958.03;894.55;;;;;;;21.67;44.78;101632.56;700454;28;23376;-64
2022/08/06 00:04:38;;;;;;;960.90;897.35;;;;;;;21.66;44.64;101631.72;696728;28;43328;-65
2022/08/06 00:05:02;;;;;;;957.15;893.70;;;;;;;21.67;44.56;101629.81;697540;28;22395;-65
2022/08/06 00:05:25;;;;;;;968.83;904.97;;;;;;;21.65;44.57;101632.78;695841;28;115027;-65
2022/08/06 00:05:47;;;;;;;956.85;893.35;;;;;;;21.64;44.71;101638.50;695662;28;69446;-65
2022/08/06 00:06:08;;;;;;;969.20;905.28;;;;;;;21.60;44.50;101624.41;697078;28;46355;-64
2022/08/06 00:06:29;;;;;;;967.33;903.47;;;;;;;21.63;44.80;101628.56;698831;28;22203;-65
2022/08/06 00:06:51;;;;;;;981.45;917.13;;;;;;;21.62;44.78;101627.75;700268;28;23393;-64
2022/08/06 00:07:13;;;;;;;987.85;923.15;;;;;;;21.62;44.84;101636.00;698042;28;69249;-64
2022/08/06 00:07:35;;;;;;;977.22;913.00;;;;;;;21.62;45.08;101637.91;700187;28;22400;-64
2022/08/06 00:08:01;;;;;;;941.35;878.33;;;;;;;21.57;44.96;101641.34;698879;28;62327;-65
2022/08/06 00:08:22;;;;;;;959.95;896.40;;;;;;;21.53;45.03;101632.69;699854;28;46371;-65
2022/08/06 00:08:44;;;;;;;969.03;905.13;;;;;;;21.55;44.97;101638.81;699994;28;22044;-65
2022/08/06 00:09:06;;;;;;;959.97;896.25;;;;;;;21.56;45.01;101639.66;697412;28;13503;-63
2022/08/06 00:09:30;;;;;;;963.28;899.38;;;;;;;21.54;45.11;101641.81;695426;28;1305;-64
2022/08/06 00:09:52;;;;;;;960.80;897.00;;;;;;;21.58;45.10;101645.75;691522;28;92279;-64
2022/08/06 00:10:14;;;;;;;961.88;898.17;;;;;;;21.58;44.96;101635.63;694955;28;46358;-64
2022/08/06 00:10:35;;;;;;;929.25;866.67;;;;;;;21.59;44.94;101650.19;694458;28;41352;-64
2022/08/06 00:10:57;;;;;;;924.70;862.20;;;;;;;21.59;45.07;101639.19;695383;28;22416;-64
2022/08/06 00:11:19;;;;;;;940.88;877.88;;;;;;;21.59;44.78;101639.19;697155;28;45219;-64
2022/08/06 00:11:40;;;;;;;941.70;878.58;;;;;;;21.56;44.81;101640.47;699275;28;46107;-64
2022/08/06 00:12:05;;;;;;;941.75;878.50;;;;;;;21.50;44.99;101637.81;699940;28;21529;-64
2022/08/06 00:12:28;;;;;;;953.70;890.15;;;;;;;21.53;44.99;101635.44;696740;28;115232;-65
2022/08/06 00:12:49;;;;;;;952.70;889.25;;;;;;;21.49;44.97;101637.00;698266;28;67495;-65
2022/08/06 00:13:11;;;;;;;974.10;910.00;;;;;;;21.46;45.16;101629.16;700849;28;21208;-64
2022/08/06 00:13:32;;;;;;;945.38;882.22;;;;;;;21.51;44.98;101645.00;700143;28;44384;-65
2022/08/06 00:13:53;;;;;;;966.83;902.95;;;;;;;21.41;44.90;101629.84;697953;28;23458;-64
2022/08/06 00:14:15;;;;;;;969.28;905.33;;;;;;;21.51;44.90;101645.84;697849;28;22392;-65
2022/08/06 00:14:38;;;;;;;972.03;907.95;;;;;;;21.52;45.10;101641.16;695437;28;45015;-65
2022/08/06 00:14:59;;;;;;;987.22;922.65;;;;;;;21.51;45.01;101645.84;695585;28;67450;-65
2022/08/06 00:15:21;;;;;;;995.17;930.30;;;;;;;21.52;45.10;101643.91;698458;28;909;-65
2022/08/06 00:15:42;;;;;;;968.92;905.05;;;;;;;21.50;45.18;101638.66;697496;28;46281;-65
2022/08/06 00:16:04;;;;;;;991.30;926.60;;;;;;;21.50;45.00;101641.41;700421;28;23624;-65
2022/08/06 00:16:25;;;;;;;997.83;932.92;;;;;;;21.50;45.10;101646.91;701215;28;949;-64
2022/08/06 00:16:46;;;;;;;961.05;897.40;;;;;;;21.50;45.30;101651.56;700343;28;23578;-65
2022/08/06 00:17:09;;;;;;;978.35;913.92;;;;;;;21.47;45.10;101661.06;700632;28;22260;-65
2022/08/06 00:17:31;;;;;;;965.25;901.40;;;;;;;21.45;45.40;101646.72;698400;28;68305;-65
2022/08/06 00:17:53;;;;;;;970.50;906.47;;;;;;;21.43;45.25;101651.59;697259;28;46434;-64
2022/08/06 00:18:15;;;;;;;969.33;905.33;;;;;;;21.41;45.31;101650.97;696954;28;46384;-65
2022/08/06 00:18:38;;;;;;;966.10;902.30;;;;;;;21.41;45.38;101648.22;694971;28;22224;-65
2022/08/06 00:18:59;;;;;;;959.88;896.33;;;;;;;21.41;45.38;101653.72;692216;28;92278;-64
2022/08/06 00:19:21;;;;;;;966.60;902.70;;;;;;;21.38;45.28;101657.78;695043;28;6311;-65
2022/08/06 00:19:43;;;;;;;975.22;910.97;;;;;;;21.35;45.51;101646.41;693214;28;44315;-64
2022/08/06 00:20:08;;;;;;;976.25;911.92;;;;;;;21.40;45.54;101654.81;694619;28;46312;-65
2022/08/06 00:20:29;;;;;;;987.05;922.45;;;;;;;21.41;45.51;101661.97;696511;28;92259;-65
2022/08/06 00:20:51;;;;;;;991.15;926.38;;;;;;;21.41;45.49;101649.09;696347;28;44330;-65
2022/08/06 00:21:12;;;;;;;981.65;917.15;;;;;;;21.31;45.48;101637.75;695565;28;45246;-64
2022/08/06 00:21:33;;;;;;;970.80;906.63;;;;;;;21.37;45.33;101641.53;697064;28;22596;-64
2022/08/06 00:21:55;;;;;;;977.88;913.58;;;;;;;21.38;45.50;101649.53;697249;28;21402;-65
2022/08/06 00:22:17;;;;;;;1004.78;939.60;;;;;;;21.39;45.43;101644.88;697410;28;22477;-65
2022/08/06 00:22:38;;;;;;;1005.22;939.95;;;;;;;21.33;45.49;101634.78;694515;28;69076;-65
2022/08/06 00:23:00;;;;;;;996.35;931.42;;;;;;;21.37;45.34;101647.03;695439;28;22095;-65
2022/08/06 00:23:21;;;;;;;1001.22;936.17;;;;;;;21.38;45.37;101655.03;695704;28;22307;-65
2022/08/06 00:23:43;;;;;;;1001.13;936.03;;;;;;;21.38;45.52;101648.72;695626;28;20842;-66
2022/08/06 00:24:05;;;;;;;1006.35;941.00;;;;;;;21.36;45.46;101648.06;693503;28;69483;-66
2022/08/06 00:24:26;;;;;;;1005.78;940.45;;;;;;;21.36;45.33;101643.44;695037;28;21885;-64
2022/08/06 00:24:47;;;;;;;993.07;928.23;;;;;;;21.40;45.25;101652.91;696077;28;23481;-65
2022/08/06 00:25:11;;;;;;;992.08;927.25;;;;;;;21.40;45.30;101650.16;700956;28;46228;-65
2022/08/06 00:25:32;;;;;;;1003.22;937.97;;;;;;;21.35;45.37;101646.41;698577;28;91178;-65
2022/08/06 00:25:54;;;;;;;1002.65;937.47;;;;;;;21.40;45.29;101658.38;700176;28;21540;-66
2022/08/06 00:26:15;;;;;;;978.63;914.30;;;;;;;21.40;45.16;101663.06;701261;28;22488;-66
2022/08/06 00:26:37;;;;;;;993.72;928.85;;;;;;;21.38;45.40;101657.78;698556;28;19730;-65
2022/08/06 00:26:59;;;;;;;989.88;925.13;;;;;;;21.39;45.53;101653.13;691827;28;67570;-65
2022/08/06 00:27:20;;;;;;;996.38;931.33;;;;;;;21.38;45.52;101660.53;692884;28;22386;-66
2022/08/06 00:27:41;;;;;;;997.33;932.30;;;;;;;21.39;45.38;101659.47;694008;28;22397;-65
2022/08/06 00:28:04;;;;;;;995.00;930.05;;;;;;;21.37;45.25;101664.34;695480;28;45243;-66
2022/08/06 00:28:25;;;;;;;985.08;920.47;;;;;;;21.40;45.33;101660.31;695907;28;67514;-65
2022/08/06 00:28:46;;;;;;;953.60;890.08;;;;;;;21.39;45.24;101656.72;700974;28;23467;-65
2022/08/06 00:29:09;;;;;;;930.85;868.17;;;;;;;21.37;45.24;101652.50;703303;28;22558;-66
2022/08/06 00:29:30;;;;;;;941.13;878.10;;;;;;;21.33;45.14;101651.28;702937;28;45249;-64
2022/08/06 00:29:53;;;;;;;956.38;892.80;;;;;;;21.36;45.19;101650.81;701027;28;44180;-65
2022/08/06 00:30:15;;;;;;;958.60;894.95;;;;;;;21.37;45.29;101652.50;699657;28;69434;-65
2022/08/06 00:30:41;;;;;;;947.53;884.28;;;;;;;21.37;45.34;101652.50;700510;28;22231;-67
2022/08/06 00:31:05;;;;;;;982.88;918.38;;;;;;;21.31;45.23;101646.00;696373;28;136304;-65
2022/08/06 00:31:26;;;;;;;989.92;925.15;;;;;;;21.32;45.30;101652.38;698491;28;68860;-65
2022/08/06 00:31:47;;;;;;;984.20;919.63;;;;;;;21.28;45.30;101657.44;699270;28;44376;-65
2022/08/06 00:32:08;;;;;;;939.47;876.42;;;;;;;21.29;45.25;101672.88;700697;28;23433;-64
2022/08/06 00:32:31;;;;;;;947.80;884.50;;;;;;;21.26;45.42;101656.00;700566;28;4585;-65
2022/08/06 00:32:52;;;;;;;955.10;891.47;;;;;;;21.23;45.38;101662.78;698531;28;46282;-64
2022/08/06 00:33:13;;;;;;;952.03;888.63;;;;;;;21.20;45.57;101658.56;701363;28;22147;-65
2022/08/06 00:33:34;;;;;;;970.50;906.40;;;;;;;21.13;45.38;101649.56;699988;28;46381;-65
2022/08/06 00:33:56;;;;;;;957.22;893.55;;;;;;;21.16;45.60;101662.00;700384;28;23333;-65
2022/08/06 00:34:18;;;;;;;956.45;892.88;;;;;;;21.15;45.49;101661.16;700946;28;22469;-66
2022/08/06 00:34:39;;;;;;;983.58;919.05;;;;;;;21.14;45.59;101670.47;699698;28;69460;-66
2022/08/06 00:35:00;;;;;;;981.88;917.35;;;;;;;21.12;45.72;101664.38;698860;28;1621;-66
2022/08/06 00:35:22;;;;;;;985.17;920.60;;;;;;;21.09;45.81;101659.31;699182;28;952;-66
2022/08/06 00:35:43;;;;;;;979.70;915.28;;;;;;;21.11;45.64;101670.09;695029;28;45230;-66
2022/08/06 00:36:06;;;;;;;957.80;894.20;;;;;;;21.09;45.89;101664.81;697538;28;22325;-65
2022/08/06 00:36:28;;;;;;;969.75;905.75;;;;;;;21.04;45.83;101662.75;696955;28;67478;-65
2022/08/06 00:36:49;;;;;;;980.92;916.53;;;;;;;21.09;45.79;101670.31;697841;28;23559;-66
2022/08/06 00:37:10;;;;;;;1000.35;935.15;;;;;;;21.09;45.96;101664.81;699341;28;45060;-66
2022/08/06 00:37:32;;;;;;;1001.67;936.50;;;;;;;21.07;46.25;101658.72;699957;28;23416;-65
2022/08/06 00:37:54;;;;;;;998.30;933.25;;;;;;;21.10;45.84;101661.00;699940;28;22396;-65
2022/08/06 00:38:16;;;;;;;998.53;933.42;;;;;;;20.97;45.91;101651.00;698736;28;69193;-65
2022/08/06 00:38:47;;;;;;;998.90;933.83;;;;;;;21.01;45.70;101662.34;698859;28;60397;-66
2022/08/06 00:39:09;;;;;;;1008.33;942.90;;;;;;;21.03;45.80;101663.81;700957;28;21327;-65
2022/08/06 00:39:30;;;;;;;989.80;925.10;;;;;;;21.02;46.05;101664.88;700899;28;33403;-66
2022/08/06 00:39:51;;;;;;;1014.42;948.85;;;;;;;21.01;45.96;101662.34;700539;28;22403;-65
2022/08/06 00:40:14;;;;;;;990.78;926.03;;;;;;;20.98;45.98;101663.63;701570;28;46396;-65
2022/08/06 00:40:37;;;;;;;1015.50;949.80;;;;;;;20.98;45.79;101660.88;698894;28;69420;-65
2022/08/06 00:40:59;;;;;;;1002.25;937.00;;;;;;;20.98;46.09;101666.38;699570;28;46451;-66
2022/08/06 00:41:21;;;;;;;996.22;931.20;;;;;;;20.98;45.83;101654.56;700205;28;46162;-64
2022/08/06 00:41:42;;;;;;;986.10;921.53;;;;;;;21.00;46.08;101664.28;700033;28;44390;-66
2022/08/06 00:42:04;;;;;;;998.28;933.17;;;;;;;20.97;45.87;101651.00;700870;28;23458;-65
2022/08/06 00:42:26;;;;;;;983.47;918.92;;;;;;;21.00;45.82;101655.19;700811;28;4149;-65
2022/08/06 00:42:49;;;;;;;955.20;891.55;;;;;;;21.01;45.85;101663.19;699777;28;45319;-65
2022/08/06 00:43:10;;;;;;;920.80;858.40;;;;;;;21.02;45.92;101653.06;699645;28;46672;-65
2022/08/06 00:43:31;;;;;;;919.38;857.00;;;;;;;21.02;46.06;101653.06;699653;28;46316;-65
2022/08/06 00:43:53;;;;;;;932.17;869.38;;;;;;;21.01;45.96;101654.13;699570;28;22326;-65
2022/08/06 00:44:15;;;;;;;945.55;882.30;;;;;;;21.03;46.12;101658.34;700200;28;22518;-65
2022/08/06 00:44:38;;;;;;;954.83;891.38;;;;;;;21.03;45.84;101661.09;699334;28;68334;-65
2022/08/06 00:45:01;;;;;;;980.50;916.13;;;;;;;21.04;45.93;101659.16;698850;28;47787;-65
2022/08/06 00:45:22;;;;;;;953.58;890.05;;;;;;;21.04;45.86;101662.75;698370;28;70094;-65
2022/08/06 00:45:43;;;;;;;962.33;898.50;;;;;;;21.04;45.87;101662.75;698633;28;22390;-65
2022/08/06 00:46:04;;;;;;;967.95;903.97;;;;;;;21.04;45.84;101665.50;699980;28;23486;-64
2022/08/06 00:46:27;;;;;;;996.03;931.10;;;;;;;21.05;45.74;101669.09;701822;28;22415;-65
2022/08/06 00:46:49;;;;;;;963.88;900.08;;;;;;;21.05;45.84;101674.59;698600;28;68335;-66
2022/08/06 00:47:10;;;;;;;971.58;907.38;;;;;;;21.05;45.76;101666.34;696382;28;45493;-65
2022/08/06 00:47:32;;;;;;;978.72;914.35;;;;;;;21.02;45.87;101673.13;696967;28;23494;-65
2022/08/06 00:47:53;;;;;;;961.42;897.65;;;;;;;21.01;45.90;101670.59;695803;28;46322;-64
2022/08/06 00:48:14;;;;;;;975.28;911.00;;;;;;;21.00;45.98;101669.75;697086;28;45236;-65
2022/08/06 00:48:38;;;;;;;991.88;926.97;;;;;;;20.97;45.93;101666.59;697415;28;21559;-65
2022/08/06 00:49:00;;;;;;;999.13;933.95;;;;;;;20.99;45.82;101673.56;696266;28;69472;-65
2022/08/06 00:49:21;;;;;;;998.28;933.13;;;;;;;20.98;46.00;101673.78;699635;28;46319;-65
2022/08/06 00:49:43;;;;;;;1006.35;940.90;;;;;;;20.98;45.72;101673.78;699799;28;47531;-65
2022/08/06 00:50:05;;;;;;;993.70;928.80;;;;;;;20.98;45.93;101668.28;697553;28;15071;-65
2022/08/06 00:50:27;;;;;;;985.13;920.53;;;;;;;20.92;45.79;101664.53;696045;28;41127;-65
2022/08/06 00:50:49;;;;;;;999.25;934.13;;;;;;;20.92;45.83;101677.44;697331;28;1406;-65
2022/08/06 00:51:10;;;;;;;1000.88;935.65;;;;;;;20.94;45.84;101672.53;697148;28;45238;-65
2022/08/06 00:51:34;;;;;;;1002.28;936.95;;;;;;;20.93;45.88;101676.38;696340;28;46206;-65
2022/08/06 00:51:56;;;;;;;1004.20;938.85;;;;;;;20.87;45.84;101664.38;694975;28;92352;-64
2022/08/06 00:52:18;;;;;;;979.90;915.47;;;;;;;20.93;45.97;101676.38;697767;28;69257;-65
2022/08/06 00:52:39;;;;;;;998.22;933.13;;;;;;;20.91;46.06;101679.34;701008;28;23496;-65
2022/08/06 00:53:01;;;;;;;986.25;921.63;;;;;;;20.89;46.03;101675.97;700240;28;23478;-65
2022/08/06 00:53:22;;;;;;;981.45;916.95;;;;;;;20.90;46.06;101676.81;700083;28;44012;-65
2022/08/06 00:53:44;;;;;;;920.28;857.85;;;;;;;20.89;46.05;101678.69;699995;28;23255;-65
2022/08/06 00:54:06;;;;;;;927.65;864.92;;;;;;;20.88;45.75;101677.03;698685;28;69441;-64
2022/08/06 00:54:29;;;;;;;935.78;872.70;;;;;;;20.90;46.06;101676.81;700630;28;1166;-65
2022/08/06 00:54:51;;;;;;;953.80;890.17;;;;;;;20.91;45.89;101675.72;695293;28;45220;-64
2022/08/06 00:55:12;;;;;;;950.70;887.15;;;;;;;20.92;46.10;101689.25;699148;28;47786;-66
2022/08/06 00:55:35;;;;;;;950.30;886.83;;;;;;;20.92;46.18;101683.75;700019;28;40149;-66
2022/08/06 00:55:56;;;;;;;957.05;893.25;;;;;;;20.92;46.04;101683.75;700393;28;1723;-65
2022/08/06 00:56:18;;;;;;;969.95;905.80;;;;;;;20.93;45.89;101676.38;700645;28;21546;-65
2022/08/06 00:56:39;;;;;;;951.92;888.47;;;;;;;20.93;46.02;101681.88;699979;28;46383;-65
2022/08/06 00:57:00;;;;;;;960.20;896.38;;;;;;;20.94;46.03;101683.53;702506;28;1205;-65
2022/08/06 00:57:23;;;;;;;979.85;915.33;;;;;;;20.92;45.75;101678.25;699668;28;45150;-66
2022/08/06 00:57:44;;;;;;;955.90;892.30;;;;;;;20.91;45.75;101675.72;699182;28;46404;-65
2022/08/06 00:58:06;;;;;;;981.28;916.75;;;;;;;20.87;46.03;101669.84;700717;28;23504;-66
2022/08/06 00:58:27;;;;;;;955.38;891.78;;;;;;;20.90;45.98;101676.81;699905;28;45227;-66
2022/08/06 00:58:48;;;;;;;970.78;906.63;;;;;;;20.87;45.95;101684.41;699855;28;22409;-65
2022/08/06 00:59:11;;;;;;;971.03;906.85;;;;;;;20.86;45.89;101677.25;701380;28;23618;-65
2022/08/06 00:59:32;;;;;;;965.33;901.40;;;;;;;20.86;45.89;101677.25;699078;28;69408;-66
2022/08/06 00:59:53;;;;;;;970.60;906.50;;;;;;;20.86;45.92;101674.53;699997;28;23464;-65
2022/08/06 01:00:16;;;;;;;979.95;915.55;;;;;;;20.86;45.83;101681.91;701898;28;23446;-65
2022/08/06 01:00:38;;;;;;;970.55;906.45;;;;;;;20.85;45.90;101680.22;699001;28;69991;-65
2022/08/06 01:00:59;;;;;;;989.28;924.47;;;;;;;20.79;45.86;101670.97;698961;28;46788;-66
2022/08/06 01:01:21;;;;;;;999.47;934.40;;;;;;;20.82;46.06;101680.69;700389;28;21961;-65
2022/08/06 01:01:42;;;;;;;1002.75;937.53;;;;;;;20.79;45.96;101681.94;699174;28;46153;-65
2022/08/06 01:02:04;;;;;;;988.38;923.75;;;;;;;20.78;45.87;101677.50;700334;28;21518;-65
2022/08/06 01:02:25;;;;;;;993.58;928.70;;;;;;;20.78;46.07;101680.25;698216;28;44358;-65
2022/08/06 01:02:46;;;;;;;990.30;925.58;;;;;;;20.79;45.64;101679.22;700268;28;22376;-66
2022/08/06 01:03:10;;;;;;;999.10;934.00;;;;;;;20.76;46.09;101667.84;699921;28;22469;-66
2022/08/06 01:03:31;;;;;;;1004.00;938.75;;;;;;;20.78;45.88;101680.25;697586;28;91945;-66
2022/08/06 01:03:53;;;;;;;1017.50;951.72;;;;;;;20.77;45.86;101677.72;699879;28;22483;-66
2022/08/06 01:04:15;;;;;;;985.80;921.13;;;;;;;20.75;45.85;101675.22;699478;28;42774;-66
2022/08/06 01:04:36;;;;;;;977.83;913.53;;;;;;;20.77;46.01;101675.84;699750;28;44226;-65
2022/08/06 01:04:57;;;;;;;984.38;919.78;;;;;;;20.73;45.86;101671.03;699235;28;23478;-65
2022/08/06 01:05:19;;;;;;;945.10;881.85;;;;;;;20.76;45.72;101681.56;700489;28;23546;-65
2022/08/06 01:05:41;;;;;;;934.55;871.80;;;;;;;20.76;45.89;101679.66;698884;28;46420;-65
2022/08/06 01:06:02;;;;;;;937.13;874.23;;;;;;;20.76;45.64;101676.91;699472;28;45210;-65
2022/08/06 01:06:23;;;;;;;959.30;895.70;;;;;;;20.76;45.88;101682.41;699078;28;46397;-65
2022/08/06 01:06:46;;;;;;;957.80;894.15;;;;;;;20.76;45.79;101682.41;699856;28;15809;-66
2022/08/06 01:07:07;;;;;;;967.92;903.90;;;;;;;20.76;45.63;101682.41;698437;28;68430;-66
2022/08/06 01:07:28;;;;;;;947.63;884.35;;;;;;;20.73;45.78;101682.00;699010;28;46154;-65
2022/08/06 01:07:49;;;;;;;958.80;895.20;;;;;;;20.76;45.71;101696.13;700674;28;21039;-65
2022/08/06 01:08:11;;;;;;;988.30;923.65;;;;;;;20.73;45.52;101688.31;699408;28;21562;-66
2022/08/06 01:08:33;;;;;;;978.80;914.50;;;;;;;20.72;45.75;101692.16;699512;28;46263;-66
2022/08/06 01:08:56;;;;;;;982.67;918.20;;;;;;;20.70;45.74;101697.00;697141;28;69415;-66
2022/08/06 01:09:17;;;;;;;921.20;858.67;;;;;;;20.73;45.63;101691.06;699390;28;46336;-65
2022/08/06 01:09:39;;;;;;;939.13;876.13;;;;;;;20.73;45.68;101691.06;700188;28;23476;-65
2022/08/06 01:10:01;;;;;;;962.90;899.00;;;;;;;20.72;45.47;101688.56;697621;28;44047;-65
2022/08/06 01:10:22;;;;;;;961.92;898.13;;;;;;;20.71;45.57;101693.22;701357;28;23469;-65
2022/08/06 01:10:43;;;;;;;960.97;897.30;;;;;;;20.72;45.64;101689.41;698494;28;46267;-65
2022/08/06 01:11:06;;;;;;;978.78;914.40;;;;;;;20.72;45.64;101694.91;699973;28;22272;-65
2022/08/06 01:11:31;;;;;;;979.75;915.40;;;;;;;20.70;45.54;101691.50;696660;28;138278;-66
2022/08/06 01:11:52;;;;;;;972.40;908.30;;;;;;;20.69;45.36;101684.38;699579;28;22378;-65
2022/08/06 01:12:14;;;;;;;974.75;910.50;;;;;;;20.69;45.52;101687.09;699550;28;22379;-66
2022/08/06 01:12:40;;;;;;;957.15;893.55;;;;;;;20.62;45.58;101678.88;698057;28;66421;-65
2022/08/06 01:13:01;;;;;;;993.47;928.60;;;;;;;20.66;45.54;101682.06;696723;28;136396;-66
2022/08/06 01:13:22;;;;;;;966.42;902.45;;;;;;;20.66;45.67;101691.13;701409;28;22434;-65
2022/08/06 01:13:44;;;;;;;957.03;893.47;;;;;;;20.64;45.53;101684.13;699733;28;22371;-66
2022/08/06 01:14:06;;;;;;;984.42;919.78;;;;;;;20.64;45.38;101687.78;699566;28;44366;-66
2022/08/06 01:14:27;;;;;;;982.70;918.10;;;;;;;20.64;45.57;101685.03;700280;28;44142;-66
2022/08/06 01:14:49;;;;;;;976.20;911.95;;;;;;;20.65;45.58;101685.84;700490;28;21422;-65
2022/08/06 01:15:11;;;;;;;977.53;913.17;;;;;;;20.66;45.57;101676.56;701269;28;46395;-66
2022/08/06 01:15:38;;;;;;;996.20;931.17;;;;;;;20.63;45.42;101676.97;699041;28;68418;-65
2022/08/06 01:16:08;;;;;;;974.88;910.60;;;;;;;20.65;45.32;101680.38;696610;28;135875;-65
2022/08/06 01:16:33;;;;;;;979.72;915.22;;;;;;;20.65;45.56;101686.69;696213;28;161259;-65
2022/08/06 01:17:03;;;;;;;970.65;906.45;;;;;;;20.68;44.95;101688.16;695528;28;137991;-66
2022/08/06 01:17:28;;;;;;;961.75;897.72;;;;;;;20.66;45.32;101682.06;696911;28;101190;-66
2022/08/06 01:17:54;;;;;;;979.35;914.95;;;;;;;20.66;45.25;101688.38;697401;28;137973;-65
2022/08/06 01:18:23;;;;;;;988.35;923.55;;;;;;;20.66;45.47;101682.06;696685;28;138201;-65
2022/08/06 01:18:51;;;;;;;986.78;922.08;;;;;;;20.68;45.29;101685.41;695279;28;136180;-65
2022/08/06 01:19:30;;;;;;;982.72;918.13;;;;;;;20.64;45.23;101692.38;696375;28;138102;-65
2022/08/06 01:19:57;;;;;;;994.92;929.88;;;;;;;20.63;45.19;101690.69;695324;28;135669;-65
2022/08/06 01:20:24;;;;;;;1007.05;941.53;;;;;;;20.60;45.10;101685.66;695508;28;159291;-65
2022/08/06 01:20:52;;;;;;;1006.45;940.97;;;;;;;20.61;44.95;101685.44;695967;28;136459;-65
2022/08/06 01:21:28;;;;;;;987.35;922.63;;;;;;;20.58;45.03;101698.75;696741;28;136255;-65
2022/08/06 01:22:08;;;;;;;1000.80;935.55;;;;;;;20.52;45.05;101693.06;695386;28;136704;-65
2022/08/06 01:22:41;;;;;;;1017.88;952.05;;;;;;;20.54;45.23;101690.13;695231;28;137697;-65
2022/08/06 01:23:11;;;;;;;980.13;915.63;;;;;;;20.53;45.33;101694.78;695827;28;137948;-65
2022/08/06 01:23:46;;;;;;;984.35;919.70;;;;;;;20.54;45.04;101698.34;695904;28;136122;-65
2022/08/06 01:24:24;;;;;;;985.60;920.90;;;;;;;20.53;45.16;101688.41;695682;28;160983;-65
2022/08/06 01:25:03;;;;;;;996.08;930.97;;;;;;;20.52;45.20;101686.75;695588;28;136146;-65
2022/08/06 01:25:47;;;;;;;985.97;921.30;;;;;;;20.46;45.11;101680.22;695520;28;158940;-65
2022/08/06 01:26:24;;;;;;;978.22;913.88;;;;;;;20.48;45.23;101682.75;687512;28;137426;-65
2022/08/06 01:26:50;;;;;;;979.50;915.05;;;;;;;20.45;45.11;101681.28;683848;28;135187;-65
2022/08/06 01:27:28;;;;;;;982.17;917.60;;;;;;;20.45;45.36;101681.28;691324;28;115870;-65
2022/08/06 01:27:53;;;;;;;943.80;880.55;;;;;;;20.42;45.49;101681.72;692245;28;157099;-65
2022/08/06 01:28:16;;;;;;;946.03;882.67;;;;;;;20.44;45.23;101682.38;694487;28;114489;-65
2022/08/06 01:28:42;;;;;;;953.47;889.88;;;;;;;20.46;45.25;101690.38;697735;28;69642;-66
2022/08/06 01:29:05;;;;;;;940.17;877.08;;;;;;;20.44;45.36;101692.47;696970;28;114880;-65
2022/08/06 01:29:29;;;;;;;937.10;874.20;;;;;;;20.43;45.41;101688.91;701150;28;15017;-65
2022/08/06 01:29:56;;;;;;;956.45;892.80;;;;;;;20.44;45.36;101684.25;697864;28;92265;-65
2022/08/06 01:30:18;;;;;;;978.58;914.15;;;;;;;20.44;45.10;101689.75;696741;28;137268;-65
2022/08/06 01:30:44;;;;;;;951.42;887.92;;;;;;;20.44;45.45;101687.00;698700;28;69463;-65
2022/08/06 01:31:11;;;;;;;954.38;890.83;;;;;;;20.43;45.27;101697.13;696077;28;136068;-65
2022/08/06 01:31:38;;;;;;;942.30;879.17;;;;;;;20.44;45.26;101687.00;696246;28;137957;-65
2022/08/06 01:32:04;;;;;;;952.03;888.50;;;;;;;20.44;45.53;101693.34;696148;28;136331;-65
2022/08/06 01:32:30;;;;;;;942.78;879.63;;;;;;;20.45;45.35;101689.53;698879;28;52174;-66
2022/08/06 01:32:57;;;;;;;948.38;885.00;;;;;;;20.45;45.31;101685.94;695775;28;138127;-65
2022/08/06 01:33:20;;;;;;;955.30;891.75;;;;;;;20.41;45.26;101688.28;696670;28;136090;-65
2022/08/06 01:33:45;;;;;;;985.70;921.10;;;;;;;20.46;45.25;101706.84;697938;28;92226;-64
2022/08/06 01:34:10;;;;;;;962.53;898.65;;;;;;;20.38;45.49;101693.38;697692;28;91970;-65
2022/08/06 01:34:35;;;;;;;978.75;914.35;;;;;;;20.42;45.30;101691.88;696705;28;137246;-65
2022/08/06 01:35:00;;;;;;;953.85;890.30;;;;;;;20.39;45.47;101695.06;695564;28;114203;-65
2022/08/06 01:35:26;;;;;;;983.97;919.35;;;;;;;20.39;45.47;101690.44;696167;28;113542;-66
2022/08/06 01:35:51;;;;;;;977.50;913.13;;;;;;;20.39;45.47;101695.06;695196;28;136319;-65
2022/08/06 01:36:17;;;;;;;1000.37;935.13;;;;;;;20.37;45.45;101698.00;696264;28;138025;-65
2022/08/06 01:36:42;;;;;;;979.90;915.47;;;;;;;20.39;45.47;101701.41;695092;28;138198;-66
2022/08/06 01:37:12;;;;;;;980.75;916.28;;;;;;;20.37;45.40;101698.00;695644;28;137824;-65
2022/08/06 01:37:38;;;;;;;1000.13;934.88;;;;;;;20.38;45.35;101705.19;695287;28;135969;-65
2022/08/06 01:38:03;;;;;;;998.05;932.90;;;;;;;20.37;45.27;101695.28;696414;28;138964;-65
2022/08/06 01:38:27;;;;;;;1011.50;945.85;;;;;;;20.40;45.59;101697.56;696246;28;137944;-66
2022/08/06 01:38:52;;;;;;;993.83;928.83;;;;;;;20.38;45.45;101699.72;698956;28;69301;-65
2022/08/06 01:39:16;;;;;;;986.33;921.58;;;;;;;20.34;45.36;101698.44;698396;28;114177;-65
2022/08/06 01:39:38;;;;;;;1034.63;968.08;;;;;;;20.38;45.40;101698.88;698382;28;92268;-65
2022/08/06 01:40:02;;;;;;;991.67;926.72;;;;;;;20.37;45.58;101703.50;698256;28;70279;-65
2022/08/06 01:40:27;;;;;;;990.33;925.38;;;;;;;20.35;45.29;101692.75;698694;28;92166;-65
2022/08/06 01:40:49;;;;;;;974.97;910.65;;;;;;;20.35;45.67;101700.16;697320;28;115216;-65
2022/08/06 01:41:38;;;;;;;990.25;925.38;;;;;;;20.35;45.61;101698.22;700535;28;46455;-65
2022/08/06 01:41:56;;;;;;;982.63;918.03;;;;;;;20.35;45.34;101697.41;696220;28;135719;-64
2022/08/06 01:42:19;;;;;;;990.88;926.03;;;;;;;20.36;45.53;101699.09;698758;28;67438;-65
2022/08/06 01:42:41;;;;;;;968.97;904.88;;;;;;;20.32;45.52;101697.84;699605;28;67490;-66
2022/08/06 01:43:04;;;;;;;1007.70;942.13;;;;;;;20.33;45.39;101694.03;700031;28;45188;-66
2022/08/06 01:43:26;;;;;;;982.50;917.92;;;;;;;20.31;45.54;101693.41;699486;28;67474;-65
2022/08/06 01:43:48;;;;;;;998.58;933.42;;;;;;;20.34;45.52;101698.44;700203;28;47149;-66
2022/08/06 01:44:13;;;;;;;956.38;892.63;;;;;;;20.31;45.44;101697.00;699286;28;67492;-66
2022/08/06 01:44:39;;;;;;;913.28;851.03;;;;;;;20.30;45.49;101692.56;694875;28;115141;-65